createdAt,value
2018-03-31T00:00:25.487Z,4.00
2018-03-31T00:01:25.507Z,4.00
2018-03-31T00:02:25.463Z,4.00
2018-03-31T00:03:25.466Z,4.00
2018-03-31T00:04:25.464Z,4.00
2018-03-31T00:05:25.424Z,4.00
2018-03-31T00:06:25.449Z,4.00
2018-03-31T00:07:25.403Z,4.00
2018-03-31T00:08:25.400Z,4.00
2018-03-31T00:09:25.381Z,4.00
2018-03-31T00:10:25.360Z,4.00
2018-03-31T00:11:25.347Z,4.00
2018-03-31T00:12:25.334Z,4.00
2018-03-31T00:13:25.322Z,4.00
2018-03-31T00:14:25.321Z,4.00
2018-03-31T00:15:25.328Z,4.00
2018-03-31T00:16:25.298Z,4.00
2018-03-31T00:17:25.271Z,4.00
2018-03-31T00:18:25.262Z,4.00
2018-03-31T00:19:25.248Z,4.00
2018-03-31T00:20:25.242Z,4.00
2018-03-31T00:21:25.252Z,4.00
2018-03-31T00:22:25.208Z,4.00
2018-03-31T00:23:25.192Z,4.00
2018-03-31T00:24:25.185Z,4.00
2018-03-31T00:25:25.173Z,4.00
2018-03-31T00:26:25.154Z,4.00
2018-03-31T00:27:25.141Z,4.00
2018-03-31T00:28:25.128Z,4.00
2018-03-31T00:29:25.118Z,4.00
2018-03-31T00:30:25.103Z,4.00
2018-03-31T00:31:25.154Z,4.00
2018-03-31T00:32:25.108Z,4.00
2018-03-31T00:33:25.083Z,4.00
2018-03-31T00:34:25.066Z,4.00
2018-03-31T00:35:25.075Z,4.00
2018-03-31T00:36:25.025Z,4.00
2018-03-31T00:37:25.030Z,4.00
2018-03-31T00:38:25.045Z,4.00
2018-03-31T00:39:24.999Z,4.00
2018-03-31T00:40:24.974Z,4.00
2018-03-31T00:41:24.985Z,4.00
2018-03-31T00:42:24.948Z,4.00
2018-03-31T00:43:24.935Z,4.00
2018-03-31T00:44:24.922Z,4.00
2018-03-31T00:45:24.909Z,4.00
2018-03-31T00:46:24.899Z,4.00
2018-03-31T00:47:24.882Z,4.00
2018-03-31T00:48:24.895Z,4.00
2018-03-31T00:49:24.864Z,4.00
2018-03-31T00:50:24.871Z,4.00
2018-03-31T00:51:24.830Z,4.00
2018-03-31T00:52:24.818Z,4.00
2018-03-31T00:53:24.804Z,4.00
2018-03-31T00:54:24.813Z,4.00
2018-03-31T00:55:24.780Z,4.00
2018-03-31T00:56:24.786Z,4.00
2018-03-31T00:57:24.753Z,4.00
2018-03-31T00:58:24.739Z,4.00
2018-03-31T00:59:24.727Z,4.00
2018-03-31T01:00:24.713Z,4.00
2018-03-31T01:01:24.700Z,4.00
2018-03-31T01:02:24.688Z,4.00
2018-03-31T01:03:24.673Z,4.00
2018-03-31T01:04:24.666Z,4.00
2018-03-31T01:05:24.648Z,4.00
2018-03-31T01:06:24.660Z,4.00
2018-03-31T01:07:24.631Z,4.00
2018-03-31T01:08:24.655Z,4.00
2018-03-31T01:09:24.596Z,4.00
2018-03-31T01:10:24.582Z,4.00
2018-03-31T01:11:24.607Z,4.00
2018-03-31T01:12:24.556Z,4.00
2018-03-31T01:13:24.544Z,4.00
2018-03-31T01:14:24.576Z,4.00
2018-03-31T01:15:24.516Z,4.00
2018-03-31T01:16:24.505Z,4.00
2018-03-31T01:17:24.496Z,4.00
2018-03-31T01:18:24.477Z,4.00
2018-03-31T01:19:24.464Z,4.00
2018-03-31T01:20:24.450Z,4.00
2018-03-31T01:21:24.437Z,4.00
2018-03-31T01:22:24.424Z,4.00
2018-03-31T01:23:24.448Z,4.00
2018-03-31T01:24:24.414Z,4.00
2018-03-31T01:25:24.385Z,4.00
2018-03-31T01:26:24.381Z,4.00
2018-03-31T01:27:24.360Z,4.00
2018-03-31T01:28:24.344Z,4.00
2018-03-31T01:29:24.358Z,4.00
2018-03-31T01:30:24.331Z,4.00
2018-03-31T01:31:24.305Z,4.00
2018-03-31T01:32:24.298Z,4.00
2018-03-31T01:33:24.279Z,4.00
2018-03-31T01:34:24.266Z,4.00
2018-03-31T01:35:24.251Z,4.00
2018-03-31T01:36:24.238Z,4.00
2018-03-31T01:37:24.225Z,4.00
2018-03-31T01:38:24.212Z,4.00
2018-03-31T01:39:24.198Z,4.00
2018-03-31T01:40:24.184Z,4.00
2018-03-31T01:41:24.195Z,4.00
2018-03-31T01:42:24.163Z,4.00
2018-03-31T01:43:24.361Z,4.00
2018-03-31T01:44:24.130Z,4.00
2018-03-31T01:45:24.117Z,4.00
2018-03-31T01:46:24.124Z,4.00
2018-03-31T01:47:24.119Z,4.00
2018-03-31T01:48:24.076Z,4.00
2018-03-31T01:49:24.104Z,4.00
2018-03-31T01:50:24.051Z,4.00
2018-03-31T01:51:24.043Z,4.00
2018-03-31T01:52:24.034Z,4.00
2018-03-31T01:53:24.010Z,4.00
2018-03-31T01:54:23.995Z,4.00
2018-03-31T01:55:23.981Z,4.00
2018-03-31T01:56:23.968Z,4.00
2018-03-31T01:57:23.955Z,4.00
2018-03-31T01:58:23.942Z,4.00
2018-03-31T01:59:23.950Z,4.00
2018-03-31T02:00:23.915Z,4.00
2018-03-31T02:01:23.917Z,4.00
2018-03-31T02:02:23.887Z,4.00
2018-03-31T02:03:23.873Z,4.00
2018-03-31T02:04:23.865Z,4.00
2018-03-31T02:05:23.857Z,4.00
2018-03-31T02:06:24.057Z,4.00
2018-03-31T02:07:23.823Z,4.00
2018-03-31T02:08:23.812Z,4.00
2018-03-31T02:09:23.813Z,4.00
2018-03-31T02:10:23.779Z,4.00
2018-03-31T02:11:23.764Z,4.00
2018-03-31T02:12:23.752Z,4.00
2018-03-31T02:13:23.738Z,4.00
2018-03-31T02:14:23.725Z,4.00
2018-03-31T02:15:23.712Z,4.00
2018-03-31T02:16:23.716Z,4.00
2018-03-31T02:17:23.691Z,4.00
2018-03-31T02:18:23.699Z,4.00
2018-03-31T02:19:23.658Z,4.00
2018-03-31T02:20:23.644Z,4.00
2018-03-31T02:21:23.630Z,4.00
2018-03-31T02:22:23.618Z,4.00
2018-03-31T02:23:23.605Z,4.00
2018-03-31T02:24:23.613Z,4.00
2018-03-31T02:25:23.576Z,4.00
2018-03-31T02:26:23.563Z,4.00
2018-03-31T02:27:23.549Z,4.00
2018-03-31T02:28:23.536Z,4.00
2018-03-31T02:29:23.522Z,4.00
2018-03-31T02:30:23.509Z,4.00
2018-03-31T02:31:23.495Z,4.00
2018-03-31T02:32:23.482Z,4.00
2018-03-31T02:33:23.471Z,4.00
2018-03-31T02:34:23.469Z,4.00
2018-03-31T02:35:23.465Z,4.00
2018-03-31T02:36:23.451Z,4.00
2018-03-31T02:37:23.416Z,4.00
2018-03-31T02:38:23.436Z,4.00
2018-03-31T02:39:23.386Z,4.00
2018-03-31T02:40:23.377Z,4.00
2018-03-31T02:42:23.365Z,4.00
2018-03-31T02:43:23.332Z,4.00
2018-03-31T02:44:23.349Z,4.00
2018-03-31T02:45:23.307Z,4.00
2018-03-31T02:46:23.300Z,4.00
2018-03-31T02:47:23.280Z,4.00
2018-03-31T02:48:23.272Z,4.00
2018-03-31T02:49:23.254Z,4.00
2018-03-31T02:50:23.240Z,4.00
2018-03-31T02:51:23.225Z,4.00
2018-03-31T02:52:23.224Z,4.00
2018-03-31T02:53:23.301Z,4.00
2018-03-31T02:54:23.192Z,4.00
2018-03-31T02:55:23.171Z,4.00
2018-03-31T02:56:23.160Z,4.00
2018-03-31T02:57:23.146Z,4.00
2018-03-31T02:58:23.140Z,4.00
2018-03-31T02:59:23.149Z,4.00
2018-03-31T03:00:23.109Z,4.00
2018-03-31T03:01:23.088Z,4.00
2018-03-31T03:02:23.076Z,4.00
2018-03-31T03:03:23.065Z,4.00
2018-03-31T03:04:23.060Z,4.00
2018-03-31T03:05:23.033Z,4.00
2018-03-31T03:06:23.020Z,4.00
2018-03-31T03:07:23.004Z,4.00
2018-03-31T03:08:22.991Z,4.00
2018-03-31T03:09:22.978Z,4.00
2018-03-31T03:10:22.964Z,4.00
2018-03-31T03:11:22.972Z,4.00
2018-03-31T03:12:22.937Z,4.00
2018-03-31T03:13:22.941Z,4.00
2018-03-31T03:14:22.909Z,4.00
2018-03-31T03:15:22.894Z,4.00
2018-03-31T03:16:22.880Z,4.00
2018-03-31T03:17:22.887Z,4.00
2018-03-31T03:18:22.853Z,4.00
2018-03-31T03:19:22.855Z,4.00
2018-03-31T03:20:22.824Z,4.00
2018-03-31T03:21:22.811Z,4.00
2018-03-31T03:22:22.799Z,4.00
2018-03-31T03:23:22.782Z,4.00
2018-03-31T03:24:22.768Z,4.00
2018-03-31T03:25:22.755Z,4.00
2018-03-31T03:26:22.741Z,4.00
2018-03-31T03:27:22.726Z,4.00
2018-03-31T03:28:22.712Z,4.00
2018-03-31T03:29:22.715Z,4.00
2018-03-31T03:30:22.711Z,4.00
2018-03-31T03:31:22.690Z,4.00
2018-03-31T03:32:22.657Z,4.00
2018-03-31T03:33:22.677Z,4.00
2018-03-31T03:34:22.626Z,4.00
2018-03-31T03:35:22.611Z,4.00
2018-03-31T03:36:22.603Z,4.00
2018-03-31T03:37:22.604Z,4.00
2018-03-31T03:38:22.569Z,4.00
2018-03-31T03:39:22.591Z,4.00
2018-03-31T03:40:22.540Z,4.00
2018-03-31T03:41:22.526Z,4.00
2018-03-31T03:42:22.528Z,4.00
2018-03-31T03:43:22.497Z,4.00
2018-03-31T03:44:22.483Z,4.00
2018-03-31T03:45:22.468Z,4.00
2018-03-31T03:46:22.454Z,4.00
2018-03-31T03:47:22.439Z,4.00
2018-03-31T03:48:22.425Z,4.00
2018-03-31T03:49:22.428Z,4.00
2018-03-31T03:50:22.396Z,4.00
2018-03-31T03:51:22.403Z,4.00
2018-03-31T03:52:22.368Z,4.00
2018-03-31T03:53:22.352Z,4.00
2018-03-31T03:54:22.338Z,4.00
2018-03-31T03:55:22.323Z,4.00
2018-03-31T03:56:22.311Z,4.00
2018-03-31T03:57:22.317Z,4.00
2018-03-31T03:58:22.280Z,4.00
2018-03-31T03:59:22.264Z,4.00
2018-03-31T04:00:22.250Z,4.00
2018-03-31T04:01:22.235Z,4.00
2018-03-31T04:02:22.221Z,4.00
2018-03-31T04:03:22.207Z,4.00
2018-03-31T04:04:22.191Z,4.00
2018-03-31T04:05:22.178Z,4.00
2018-03-31T04:06:22.162Z,4.00
2018-03-31T04:07:22.147Z,4.00
2018-03-31T04:08:22.132Z,4.00
2018-03-31T04:09:22.137Z,4.00
2018-03-31T04:10:22.156Z,4.00
2018-03-31T04:11:22.102Z,4.00
2018-03-31T04:12:22.074Z,4.00
2018-03-31T04:13:22.089Z,4.00
2018-03-31T04:14:22.044Z,4.00
2018-03-31T04:15:22.034Z,4.00
2018-03-31T04:16:22.072Z,4.00
2018-03-31T04:17:22.018Z,4.00
2018-03-31T04:18:21.985Z,4.00
2018-03-31T04:19:22.004Z,4.00
2018-03-31T04:20:21.955Z,4.00
2018-03-31T04:21:21.940Z,4.00
2018-03-31T04:22:21.930Z,4.00
2018-03-31T04:23:21.911Z,4.00
2018-03-31T04:24:21.916Z,4.00
2018-03-31T04:25:21.881Z,4.00
2018-03-31T04:26:21.867Z,4.00
2018-03-31T04:27:21.851Z,4.00
2018-03-31T04:28:21.842Z,4.00
2018-03-31T04:29:21.845Z,4.00
2018-03-31T04:30:21.811Z,4.00
2018-03-31T04:31:21.819Z,4.00
2018-03-31T04:32:21.777Z,4.00
2018-03-31T04:33:21.762Z,4.00
2018-03-31T04:34:21.748Z,4.00
2018-03-31T04:35:21.732Z,4.00
2018-03-31T04:36:21.726Z,4.00
2018-03-31T04:37:21.790Z,4.00
2018-03-31T04:38:21.697Z,4.00
2018-03-31T04:39:21.673Z,4.00
2018-03-31T04:40:21.671Z,4.00
2018-03-31T04:41:21.644Z,0.00
2018-03-31T04:42:21.629Z,0.00
2018-03-31T04:43:21.613Z,4.00
2018-03-31T04:44:21.598Z,4.00
2018-03-31T04:45:21.584Z,4.00
2018-03-31T04:46:21.569Z,4.00
2018-03-31T04:47:21.553Z,8.00
2018-03-31T04:48:21.541Z,4.00
2018-03-31T04:49:21.553Z,8.00
2018-03-31T04:50:21.510Z,8.00
2018-03-31T04:51:21.494Z,8.00
2018-03-31T04:52:21.495Z,8.00
2018-03-31T04:53:21.465Z,12.00
2018-03-31T04:54:21.451Z,12.00
2018-03-31T04:55:21.449Z,16.00
2018-03-31T04:56:21.454Z,16.00
2018-03-31T04:57:21.410Z,20.00
2018-03-31T04:58:21.438Z,24.00
2018-03-31T04:59:21.380Z,28.00
2018-03-31T05:00:21.362Z,32.00
2018-03-31T05:01:21.360Z,40.00
2018-03-31T05:02:21.332Z,44.00
2018-03-31T05:03:21.317Z,48.00
2018-03-31T05:04:21.301Z,56.00
2018-03-31T05:05:21.287Z,64.00
2018-03-31T05:06:21.272Z,72.00
2018-03-31T05:07:21.257Z,80.00
2018-03-31T05:08:21.242Z,88.00
2018-03-31T05:09:21.234Z,100.00
2018-03-31T05:10:21.218Z,112.00
2018-03-31T05:11:21.400Z,124.00
2018-03-31T05:12:21.183Z,140.00
2018-03-31T05:13:21.226Z,152.00
2018-03-31T05:14:21.152Z,168.00
2018-03-31T05:15:21.196Z,180.00
2018-03-31T05:16:21.122Z,196.00
2018-03-31T05:17:21.107Z,212.00
2018-03-31T05:18:21.093Z,228.00
2018-03-31T05:19:21.077Z,244.00
2018-03-31T05:20:21.067Z,264.00
2018-03-31T05:21:21.049Z,280.00
2018-03-31T05:22:21.034Z,296.00
2018-03-31T05:23:21.018Z,316.00
2018-03-31T05:24:21.004Z,336.00
2018-03-31T05:25:20.988Z,356.00
2018-03-31T05:26:20.998Z,376.00
2018-03-31T05:27:21.218Z,396.00
2018-03-31T05:28:20.946Z,416.00
2018-03-31T05:29:20.929Z,440.00
2018-03-31T05:30:21.019Z,464.00
2018-03-31T05:31:20.901Z,488.00
2018-03-31T05:32:20.889Z,512.00
2018-03-31T05:33:20.954Z,540.00
2018-03-31T05:34:20.860Z,564.00
2018-03-31T05:35:20.840Z,592.00
2018-03-31T05:36:20.858Z,624.00
2018-03-31T05:37:20.811Z,652.00
2018-03-31T05:38:20.799Z,680.00
2018-03-31T05:39:20.780Z,708.00
2018-03-31T05:40:20.765Z,732.00
2018-03-31T05:41:20.757Z,756.00
2018-03-31T05:42:20.737Z,784.00
2018-03-31T05:43:20.722Z,812.00
2018-03-31T05:44:20.707Z,840.00
2018-03-31T05:45:20.692Z,860.00
2018-03-31T05:46:20.677Z,880.00
2018-03-31T05:47:20.662Z,904.00
2018-03-31T05:48:20.649Z,924.00
2018-03-31T05:49:20.636Z,944.00
2018-03-31T05:50:20.710Z,960.00
2018-03-31T05:51:20.603Z,976.00
2018-03-31T05:52:20.588Z,1004.00
2018-03-31T05:53:20.623Z,1028.00
2018-03-31T05:54:20.560Z,1056.00
2018-03-31T05:55:20.546Z,1084.00
2018-03-31T05:56:20.531Z,1116.00
2018-03-31T05:57:20.515Z,1148.00
2018-03-31T05:58:20.502Z,1180.00
2018-03-31T05:59:20.484Z,1220.00
2018-03-31T06:00:20.476Z,1264.00
2018-03-31T06:01:20.463Z,1304.00
2018-03-31T06:02:20.441Z,1344.00
2018-03-31T06:03:20.428Z,1372.00
2018-03-31T06:04:20.412Z,1408.00
2018-03-31T06:05:20.406Z,1488.00
2018-03-31T06:06:20.382Z,1568.00
2018-03-31T06:07:20.366Z,1624.00
2018-03-31T06:08:20.352Z,1684.00
2018-03-31T06:09:20.337Z,1780.00
2018-03-31T06:10:20.323Z,1820.00
2018-03-31T06:11:20.307Z,1896.00
2018-03-31T06:12:20.293Z,1992.00
2018-03-31T06:13:20.278Z,2128.00
2018-03-31T06:14:20.369Z,2188.00
2018-03-31T06:15:20.248Z,2228.00
2018-03-31T06:16:20.234Z,2304.00
2018-03-31T06:17:20.290Z,2372.00
2018-03-31T06:18:20.209Z,2456.00
2018-03-31T06:19:20.189Z,2552.00
2018-03-31T06:20:20.223Z,2532.00
2018-03-31T06:21:20.161Z,2536.00
2018-03-31T06:22:20.147Z,2388.00
2018-03-31T06:23:20.182Z,2296.00
2018-03-31T06:24:20.122Z,2344.00
2018-03-31T06:25:20.103Z,2448.00
2018-03-31T06:26:20.104Z,2444.00
2018-03-31T06:27:20.074Z,2352.00
2018-03-31T06:28:20.061Z,2536.00
2018-03-31T06:29:20.044Z,2660.00
2018-03-31T06:30:20.033Z,2684.00
2018-03-31T06:31:20.016Z,2824.00
2018-03-31T06:32:20.002Z,2884.00
2018-03-31T06:33:19.988Z,2940.00
2018-03-31T06:34:20.208Z,3180.00
2018-03-31T06:35:19.959Z,3324.00
2018-03-31T06:36:19.945Z,3332.00
2018-03-31T06:37:20.052Z,3148.00
2018-03-31T06:38:19.917Z,3288.00
2018-03-31T06:39:19.902Z,3380.00
2018-03-31T06:40:20.094Z,3372.00
2018-03-31T06:41:19.908Z,3380.00
2018-03-31T06:42:19.861Z,3360.00
2018-03-31T06:43:19.896Z,3420.00
2018-03-31T06:44:19.833Z,3460.00
2018-03-31T06:45:19.819Z,3392.00
2018-03-31T06:46:19.808Z,3456.00
2018-03-31T06:47:19.795Z,3604.00
2018-03-31T06:48:19.781Z,3672.00
2018-03-31T06:49:19.765Z,3736.00
2018-03-31T06:50:19.750Z,3692.00
2018-03-31T06:51:19.735Z,3720.00
2018-03-31T06:52:19.722Z,3792.00
2018-03-31T06:53:19.708Z,3732.00
2018-03-31T06:54:19.898Z,3828.00
2018-03-31T06:55:19.681Z,3760.00
2018-03-31T06:56:19.670Z,3628.00
2018-03-31T06:57:19.857Z,3652.00
2018-03-31T06:58:19.699Z,4012.00
2018-03-31T06:59:19.627Z,3884.00
2018-03-31T07:00:19.695Z,3824.00
2018-03-31T07:01:19.599Z,4136.00
2018-03-31T07:02:19.587Z,4312.00
2018-03-31T07:03:19.593Z,4340.00
2018-03-31T07:04:19.562Z,4436.00
2018-03-31T07:05:19.753Z,4488.00
2018-03-31T07:06:19.533Z,4536.00
2018-03-31T07:07:19.519Z,4592.00
2018-03-31T07:08:19.592Z,4644.00
2018-03-31T07:09:19.496Z,4700.00
2018-03-31T07:10:19.480Z,4752.00
2018-03-31T07:11:19.547Z,4824.00
2018-03-31T07:12:19.454Z,4884.00
2018-03-31T07:13:19.443Z,4952.00
2018-03-31T07:14:19.432Z,5024.00
2018-03-31T07:15:19.425Z,5104.00
2018-03-31T07:16:19.405Z,5196.00
2018-03-31T07:17:19.391Z,5276.00
2018-03-31T07:18:19.378Z,5380.00
2018-03-31T07:19:19.366Z,5796.00
2018-03-31T07:20:19.362Z,8188.00
2018-03-31T07:21:19.342Z,14496.00
2018-03-31T07:22:19.463Z,20544.00
2018-03-31T07:23:19.317Z,14380.00
2018-03-31T07:24:19.305Z,7276.00
2018-03-31T07:26:19.281Z,16928.00
2018-03-31T07:27:19.270Z,24864.00
2018-03-31T07:28:19.303Z,47616.00
2018-03-31T07:29:19.246Z,53536.00
2018-03-31T07:30:19.243Z,40160.00
2018-03-31T07:31:19.242Z,45664.00
2018-03-31T07:32:19.213Z,33952.00
2018-03-31T07:33:19.203Z,26944.00
2018-03-31T07:34:19.193Z,36608.00
2018-03-31T07:35:19.183Z,57216.00
2018-03-31T07:36:19.197Z,50368.00
2018-03-31T07:37:19.166Z,51648.00
2018-03-31T07:38:19.162Z,53504.00
2018-03-31T07:39:19.226Z,53472.00
2018-03-31T07:40:19.145Z,55776.00
2018-03-31T07:41:19.143Z,54624.00
2018-03-31T07:42:19.147Z,55168.00
2018-03-31T07:43:19.119Z,57120.00
2018-03-31T07:44:19.115Z,57184.00
2018-03-31T07:45:19.108Z,60736.00
2018-03-31T07:46:19.106Z,56960.00
2018-03-31T07:47:19.097Z,59392.00
2018-03-31T07:48:19.092Z,55680.00
2018-03-31T07:49:19.088Z,60512.00
2018-03-31T07:51:19.081Z,55616.00
2018-03-31T07:52:19.083Z,58208.00
2018-03-31T07:53:19.120Z,56736.00
2018-03-31T07:54:19.078Z,52928.00
2018-03-31T07:55:19.072Z,63776.00
2018-03-31T07:56:19.071Z,55968.00
2018-03-31T07:57:19.070Z,56512.00
2018-03-31T07:58:19.069Z,64576.00
2018-03-31T07:59:19.068Z,52288.00
2018-03-31T08:00:19.067Z,70144.00
2018-03-31T08:01:19.116Z,55744.00
2018-03-31T08:02:19.067Z,59136.00
2018-03-31T08:03:19.068Z,64416.00
2018-03-31T08:04:19.069Z,56672.00
2018-03-31T08:05:19.122Z,65536.00
2018-03-31T08:06:19.068Z,56864.00
2018-03-31T08:07:19.068Z,71744.00
2018-03-31T08:08:19.069Z,68960.00
2018-03-31T08:09:19.069Z,69888.00
2018-03-31T08:10:19.070Z,66848.00
2018-03-31T08:11:19.071Z,67104.00
2018-03-31T08:12:19.071Z,77088.00
2018-03-31T08:13:19.160Z,69504.00
2018-03-31T08:14:19.073Z,72960.00
2018-03-31T08:15:19.073Z,78304.00
2018-03-31T08:16:19.127Z,75264.00
2018-03-31T08:17:19.122Z,66496.00
2018-03-31T08:18:19.076Z,53024.00
2018-03-31T08:19:19.077Z,81952.00
2018-03-31T08:20:19.080Z,64864.00
2018-03-31T08:21:19.079Z,61440.00
2018-03-31T08:22:19.082Z,73216.00
2018-03-31T08:23:19.081Z,66784.00
2018-03-31T08:24:19.147Z,87744.00
2018-03-31T08:25:19.086Z,74400.00
2018-03-31T08:26:19.088Z,78080.00
2018-03-31T08:27:19.088Z,89408.00
2018-03-31T08:28:19.092Z,71232.00
2018-03-31T08:29:19.094Z,87264.00
2018-03-31T08:30:19.104Z,77920.00
2018-03-31T08:31:19.096Z,81248.00
2018-03-31T08:32:19.098Z,87680.00
2018-03-31T08:33:19.100Z,71488.00
2018-03-31T08:34:19.104Z,85376.00
2018-03-31T08:35:19.158Z,83520.00
2018-03-31T08:36:19.107Z,78592.00
2018-03-31T08:37:19.110Z,98400.00
2018-03-31T08:38:19.111Z,70016.00
2018-03-31T08:39:19.112Z,89440.00
2018-03-31T08:40:19.117Z,94368.00
2018-03-31T08:41:19.124Z,75264.00
2018-03-31T08:42:19.120Z,100512.00
2018-03-31T08:43:19.193Z,94016.00
2018-03-31T08:44:19.125Z,85408.00
2018-03-31T08:45:19.127Z,99488.00
2018-03-31T08:46:19.154Z,89728.00
2018-03-31T08:47:19.136Z,87008.00
2018-03-31T08:48:19.137Z,94720.00
2018-03-31T08:49:19.141Z,69696.00
2018-03-31T08:50:19.143Z,90304.00
2018-03-31T08:51:19.221Z,90656.00
2018-03-31T08:52:19.149Z,87904.00
2018-03-31T08:53:19.153Z,99968.00
2018-03-31T08:54:19.212Z,94272.00
2018-03-31T08:55:19.160Z,94208.00
2018-03-31T08:56:19.165Z,97312.00
2018-03-31T08:57:19.170Z,87200.00
2018-03-31T08:58:19.174Z,102464.00
2018-03-31T08:59:19.179Z,86560.00
2018-03-31T09:00:19.184Z,73280.00
2018-03-31T09:01:19.190Z,89696.00
2018-03-31T09:02:19.397Z,71744.00
2018-03-31T09:03:19.197Z,67072.00
2018-03-31T09:04:19.277Z,81344.00
2018-03-31T09:05:19.207Z,60544.00
2018-03-31T09:06:19.211Z,74720.00
2018-03-31T09:07:19.213Z,92768.00
2018-03-31T09:08:19.218Z,63136.00
2018-03-31T09:09:19.276Z,76480.00
2018-03-31T09:10:19.225Z,70464.00
2018-03-31T09:11:19.230Z,56032.00
2018-03-31T09:12:19.434Z,57152.00
2018-03-31T09:13:19.236Z,59648.00
2018-03-31T09:14:19.237Z,72736.00
2018-03-31T09:15:19.282Z,66528.00
2018-03-31T09:16:19.244Z,63328.00
2018-03-31T09:17:19.242Z,69984.00
2018-03-31T09:18:19.244Z,76256.00
2018-03-31T09:19:19.247Z,72864.00
2018-03-31T09:20:19.252Z,78848.00
2018-03-31T09:21:19.263Z,66400.00
2018-03-31T09:22:19.253Z,86880.00
2018-03-31T09:24:19.260Z,73536.00
2018-03-31T09:25:19.265Z,77280.00
2018-03-31T09:26:19.266Z,95104.00
2018-03-31T09:27:19.265Z,94048.00
2018-03-31T09:28:19.269Z,90624.00
2018-03-31T09:29:19.272Z,109216.00
2018-03-31T09:30:19.277Z,104064.00
2018-03-31T09:31:19.377Z,111040.00
2018-03-31T09:32:19.284Z,98720.00
2018-03-31T09:33:19.290Z,101792.00
2018-03-31T09:34:19.308Z,98304.00
2018-03-31T09:35:19.300Z,68768.00
2018-03-31T09:36:19.311Z,71328.00
2018-03-31T09:37:19.312Z,97632.00
2018-03-31T09:38:19.317Z,74400.00
2018-03-31T09:39:19.330Z,106272.00
2018-03-31T09:40:19.333Z,46944.00
2018-03-31T09:41:19.333Z,42144.00
2018-03-31T09:42:19.370Z,42784.00
2018-03-31T09:43:19.352Z,41248.00
2018-03-31T09:44:19.348Z,27872.00
2018-03-31T09:45:19.351Z,24640.00
2018-03-31T09:46:19.359Z,22816.00
2018-03-31T09:47:19.357Z,22048.00
2018-03-31T09:48:19.361Z,21440.00
2018-03-31T09:49:19.360Z,20896.00
2018-03-31T09:50:19.417Z,19936.00
2018-03-31T09:51:19.360Z,19360.00
2018-03-31T09:52:19.362Z,19008.00
2018-03-31T09:53:19.360Z,18944.00
2018-03-31T09:54:19.359Z,18784.00
2018-03-31T09:55:19.357Z,18784.00
2018-03-31T09:56:19.357Z,18816.00
2018-03-31T09:57:19.357Z,18624.00
2018-03-31T09:58:19.374Z,18496.00
2018-03-31T09:59:19.350Z,18592.00
2018-03-31T10:00:19.364Z,18944.00
2018-03-31T10:01:19.396Z,19552.00
2018-03-31T10:02:19.341Z,20288.00
2018-03-31T10:03:19.342Z,21216.00
2018-03-31T10:04:19.334Z,22496.00
2018-03-31T10:05:19.549Z,23712.00
2018-03-31T10:06:19.332Z,25568.00
2018-03-31T10:07:19.324Z,26976.00
2018-03-31T10:08:19.420Z,28192.00
2018-03-31T10:09:19.317Z,29664.00
2018-03-31T10:10:19.315Z,30528.00
2018-03-31T10:11:19.332Z,36896.00
2018-03-31T10:12:19.305Z,39008.00
2018-03-31T10:13:19.302Z,38912.00
2018-03-31T10:14:19.301Z,37728.00
2018-03-31T10:15:19.294Z,32992.00
2018-03-31T10:16:19.295Z,35872.00
2018-03-31T10:17:19.291Z,43968.00
2018-03-31T10:18:19.284Z,37120.00
2018-03-31T10:19:19.484Z,41984.00
2018-03-31T10:20:19.279Z,43520.00
2018-03-31T10:21:19.276Z,49088.00
2018-03-31T10:22:19.316Z,46432.00
2018-03-31T10:23:19.270Z,46112.00
2018-03-31T10:24:19.272Z,37984.00
2018-03-31T10:25:19.268Z,41920.00
2018-03-31T10:26:19.263Z,37984.00
2018-03-31T10:27:19.260Z,42688.00
2018-03-31T10:28:19.258Z,36896.00
2018-03-31T10:29:19.284Z,42144.00
2018-03-31T10:30:19.457Z,43584.00
2018-03-31T10:31:19.253Z,48704.00
2018-03-31T10:32:19.252Z,42208.00
2018-03-31T10:33:19.252Z,36512.00
2018-03-31T10:34:19.266Z,34752.00
2018-03-31T10:35:19.270Z,51392.00
2018-03-31T10:36:19.243Z,41792.00
2018-03-31T10:37:19.244Z,37536.00
2018-03-31T10:38:19.243Z,27840.00
2018-03-31T10:39:19.238Z,37280.00
2018-03-31T10:40:19.241Z,25696.00
2018-03-31T10:41:19.279Z,26208.00
2018-03-31T10:42:19.233Z,25536.00
2018-03-31T10:43:19.230Z,24800.00
2018-03-31T10:44:19.251Z,23648.00
2018-03-31T10:45:19.227Z,22912.00
2018-03-31T10:46:19.221Z,23936.00
2018-03-31T10:47:19.221Z,46272.00
2018-03-31T10:48:19.214Z,48480.00
2018-03-31T10:49:19.210Z,53536.00
2018-03-31T10:50:19.208Z,44128.00
2018-03-31T10:51:19.203Z,64480.00
2018-03-31T10:52:19.404Z,65024.00
2018-03-31T10:53:19.199Z,53248.00
2018-03-31T10:54:19.200Z,39296.00
2018-03-31T10:55:19.245Z,31104.00
2018-03-31T10:56:19.194Z,26048.00
2018-03-31T10:57:19.193Z,23264.00
2018-03-31T10:58:19.194Z,29888.00
2018-03-31T10:59:19.189Z,77216.00
2018-03-31T11:00:19.201Z,21024.00
2018-03-31T11:01:19.186Z,19744.00
2018-03-31T11:02:19.186Z,19680.00
2018-03-31T11:03:19.386Z,20032.00
2018-03-31T11:04:19.228Z,21472.00
2018-03-31T11:05:19.180Z,25504.00
2018-03-31T11:06:19.178Z,34304.00
2018-03-31T11:07:19.175Z,57760.00
2018-03-31T11:08:19.176Z,45760.00
2018-03-31T11:10:19.170Z,37248.00
2018-03-31T11:11:19.168Z,38336.00
2018-03-31T11:12:19.369Z,88384.00
2018-03-31T11:13:19.165Z,52832.00
2018-03-31T11:14:19.164Z,37248.00
2018-03-31T11:15:19.172Z,28608.00
2018-03-31T11:16:19.168Z,28256.00
2018-03-31T11:17:19.162Z,26240.00
2018-03-31T11:18:19.164Z,25984.00
2018-03-31T11:19:19.160Z,23936.00
2018-03-31T11:21:19.158Z,18912.00
2018-03-31T11:22:19.157Z,17248.00
2018-03-31T11:23:19.187Z,16384.00
2018-03-31T11:24:19.152Z,15056.00
2018-03-31T11:25:19.153Z,13896.00
2018-03-31T11:26:19.168Z,12636.00
2018-03-31T11:27:19.145Z,11816.00
2018-03-31T11:28:19.159Z,11160.00
2018-03-31T11:29:19.140Z,11004.00
2018-03-31T11:30:19.137Z,11360.00
2018-03-31T11:31:19.147Z,11936.00
2018-03-31T11:32:19.134Z,12160.00
2018-03-31T11:33:19.125Z,12120.00
2018-03-31T11:34:19.326Z,12016.00
2018-03-31T11:35:19.117Z,12044.00
2018-03-31T11:36:19.116Z,12052.00
2018-03-31T11:37:19.107Z,12124.00
2018-03-31T11:38:19.105Z,12388.00
2018-03-31T11:39:19.096Z,12456.00
2018-03-31T11:40:19.091Z,12480.00
2018-03-31T11:41:19.086Z,12584.00
2018-03-31T11:42:19.173Z,12756.00
2018-03-31T11:43:19.076Z,13020.00
2018-03-31T11:44:19.069Z,13188.00
2018-03-31T11:45:19.122Z,13216.00
2018-03-31T11:46:19.059Z,13204.00
2018-03-31T11:47:19.052Z,13228.00
2018-03-31T11:48:19.046Z,13204.00
2018-03-31T11:49:19.040Z,13124.00
2018-03-31T11:50:19.034Z,12940.00
2018-03-31T11:51:19.028Z,12812.00
2018-03-31T11:52:19.024Z,12752.00
2018-03-31T11:53:19.016Z,12512.00
2018-03-31T11:54:19.010Z,12028.00
2018-03-31T11:55:19.003Z,11716.00
2018-03-31T11:56:19.213Z,11548.00
2018-03-31T11:57:18.991Z,11184.00
2018-03-31T11:58:18.988Z,10820.00
2018-03-31T11:59:19.005Z,10656.00
2018-03-31T12:00:18.972Z,10508.00
2018-03-31T12:01:18.966Z,10248.00
2018-03-31T12:02:18.968Z,10052.00
2018-03-31T12:03:18.960Z,9896.00
2018-03-31T12:04:18.951Z,9928.00
2018-03-31T12:05:18.943Z,9996.00
2018-03-31T12:06:18.934Z,9788.00
2018-03-31T12:07:18.929Z,9384.00
2018-03-31T12:08:18.920Z,9140.00
2018-03-31T12:09:18.915Z,8908.00
2018-03-31T12:10:18.906Z,8656.00
2018-03-31T12:11:18.898Z,8152.00
2018-03-31T12:12:18.893Z,7844.00
2018-03-31T12:13:18.946Z,7468.00
2018-03-31T12:14:18.878Z,7036.00
2018-03-31T12:15:18.870Z,6768.00
2018-03-31T12:16:18.881Z,6724.00
2018-03-31T12:17:18.857Z,6632.00
2018-03-31T12:18:18.856Z,6560.00
2018-03-31T12:19:18.844Z,6588.00
2018-03-31T12:20:18.835Z,6748.00
2018-03-31T12:21:18.827Z,6924.00
2018-03-31T12:22:18.821Z,7268.00
2018-03-31T12:23:18.812Z,7672.00
2018-03-31T12:24:18.805Z,8048.00
2018-03-31T12:25:18.798Z,8360.00
2018-03-31T12:26:18.791Z,8464.00
2018-03-31T12:27:18.986Z,8376.00
2018-03-31T12:28:18.784Z,8488.00
2018-03-31T12:29:18.772Z,8548.00
2018-03-31T12:30:18.965Z,8532.00
2018-03-31T12:31:18.754Z,8684.00
2018-03-31T12:32:18.746Z,8936.00